Wolverine Lake, Michigan
Current Conditions -  °F | °C
As of 11:53 PM on Tuesday 25 Nov 2014 (Local Time) from KPTK Reporting Station
Light Snow Light Snow  
Wind Chill: 23°   Ceiling: 2100
Heat Index: 29°   Visibility: 9mi
Dew Point: 20°   Wind: 6mph
Humidity: 69%   Direction: 250°WSW
Pressure: 30.17"   Gusts: NA
Location:  42.5503°N, 83.474°W
Report Text: KPTK 260453Z 25005KT 9SM -SN OVC021 M02/M07 A3017 RMK AO2 SLP227 LAST AUGMENTED OBS NEXT 11Z P0000 T10171067 400061017
Loading
Personal Weather Stations






























Interactive Weather Map New forecast layout! Learn more

10-Day Weather Forecast

Advertisements
Track Severe Weather on mobile